sensor_id;sensor_type;location;lat;lon;timestamp;temperature;humidity
13960;DHT22;7052;51.050;3.716;2023-04-06T00:00:48;9.80;51.60
13960;DHT22;7052;51.050;3.716;2023-04-06T00:03:18;9.80;52.00
13960;DHT22;7052;51.050;3.716;2023-04-06T00:05:47;9.70;52.20
13960;DHT22;7052;51.050;3.716;2023-04-06T00:08:17;9.70;52.70
13960;DHT22;7052;51.050;3.716;2023-04-06T00:10:43;9.60;53.10
13960;DHT22;7052;51.050;3.716;2023-04-06T00:13:12;9.60;53.40
13960;DHT22;7052;51.050;3.716;2023-04-06T00:15:38;9.60;53.70
13960;DHT22;7052;51.050;3.716;2023-04-06T00:18:07;9.60;54.20
13960;DHT22;7052;51.050;3.716;2023-04-06T00:20:35;9.60;54.50
13960;DHT22;7052;51.050;3.716;2023-04-06T00:23:02;9.50;55.20
13960;DHT22;7052;51.050;3.716;2023-04-06T00:25:32;9.50;55.70
13960;DHT22;7052;51.050;3.716;2023-04-06T00:27:59;9.50;56.20
13960;DHT22;7052;51.050;3.716;2023-04-06T00:30:26;9.50;56.50
13960;DHT22;7052;51.050;3.716;2023-04-06T00:32:53;9.50;56.80
13960;DHT22;7052;51.050;3.716;2023-04-06T00:35:21;9.50;57.40
13960;DHT22;7052;51.050;3.716;2023-04-06T00:37:49;9.40;58.60
13960;DHT22;7052;51.050;3.716;2023-04-06T00:40:17;9.40;58.40
13960;DHT22;7052;51.050;3.716;2023-04-06T00:42:45;9.40;58.80
13960;DHT22;7052;51.050;3.716;2023-04-06T00:45:14;9.40;59.20
13960;DHT22;7052;51.050;3.716;2023-04-06T00:47:41;9.40;59.70
13960;DHT22;7052;51.050;3.716;2023-04-06T00:50:12;9.40;59.90
13960;DHT22;7052;51.050;3.716;2023-04-06T00:52:41;9.40;60.10
13960;DHT22;7052;51.050;3.716;2023-04-06T00:55:10;9.40;60.50
13960;DHT22;7052;51.050;3.716;2023-04-06T00:57:37;9.40;60.90
13960;DHT22;7052;51.050;3.716;2023-04-06T01:00:05;9.40;61.60
13960;DHT22;7052;51.050;3.716;2023-04-06T01:02:58;9.40;62.20
13960;DHT22;7052;51.050;3.716;2023-04-06T01:05:35;9.40;62.80
13960;DHT22;7052;51.050;3.716;2023-04-06T01:08:08;9.40;63.50
13960;DHT22;7052;51.050;3.716;2023-04-06T01:10:39;9.30;64.20
13960;DHT22;7052;51.050;3.716;2023-04-06T01:13:07;9.30;65.10
13960;DHT22;7052;51.050;3.716;2023-04-06T01:15:36;9.30;66.40
13960;DHT22;7052;51.050;3.716;2023-04-06T01:18:04;9.30;67.60
13960;DHT22;7052;51.050;3.716;2023-04-06T01:20:35;9.30;68.40
13960;DHT22;7052;51.050;3.716;2023-04-06T01:23:04;9.30;69.40
13960;DHT22;7052;51.050;3.716;2023-04-06T01:25:34;9.30;70.30
13960;DHT22;7052;51.050;3.716;2023-04-06T01:28:01;9.30;71.40
13960;DHT22;7052;51.050;3.716;2023-04-06T01:30:30;9.30;72.10
13960;DHT22;7052;51.050;3.716;2023-04-06T01:32:57;9.30;72.90
13960;DHT22;7052;51.050;3.716;2023-04-06T01:35:28;9.20;73.10
13960;DHT22;7052;51.050;3.716;2023-04-06T01:37:56;9.20;73.20
13960;DHT22;7052;51.050;3.716;2023-04-06T01:40:25;9.20;73.60
13960;DHT22;7052;51.050;3.716;2023-04-06T01:42:52;9.20;74.20
13960;DHT22;7052;51.050;3.716;2023-04-06T01:45:19;9.20;75.00
13960;DHT22;7052;51.050;3.716;2023-04-06T01:47:49;9.20;75.60
13960;DHT22;7052;51.050;3.716;2023-04-06T01:50:16;9.20;76.50
13960;DHT22;7052;51.050;3.716;2023-04-06T01:52:44;9.20;77.40
13960;DHT22;7052;51.050;3.716;2023-04-06T01:55:11;9.20;78.10
13960;DHT22;7052;51.050;3.716;2023-04-06T01:57:40;9.20;78.50
13960;DHT22;7052;51.050;3.716;2023-04-06T02:00:08;9.20;79.20
13960;DHT22;7052;51.050;3.716;2023-04-06T02:02:35;9.20;80.00
13960;DHT22;7052;51.050;3.716;2023-04-06T02:05:03;9.10;80.30
13960;DHT22;7052;51.050;3.716;2023-04-06T02:07:30;9.10;80.80
13960;DHT22;7052;51.050;3.716;2023-04-06T02:09:57;9.10;81.30
13960;DHT22;7052;51.050;3.716;2023-04-06T02:12:23;9.10;81.80
13960;DHT22;7052;51.050;3.716;2023-04-06T02:14:54;9.10;82.20
13960;DHT22;7052;51.050;3.716;2023-04-06T02:17:21;9.10;82.60
13960;DHT22;7052;51.050;3.716;2023-04-06T02:19:48;9.00;83.10
13960;DHT22;7052;51.050;3.716;2023-04-06T02:22:16;9.00;83.40
13960;DHT22;7052;51.050;3.716;2023-04-06T02:24:43;9.10;84.00
13960;DHT22;7052;51.050;3.716;2023-04-06T02:27:11;9.00;84.50
13960;DHT22;7052;51.050;3.716;2023-04-06T02:29:38;9.00;84.90
13960;DHT22;7052;51.050;3.716;2023-04-06T02:32:06;9.10;85.30
13960;DHT22;7052;51.050;3.716;2023-04-06T02:34:33;9.00;85.70
13960;DHT22;7052;51.050;3.716;2023-04-06T02:37:00;9.00;86.30
13960;DHT22;7052;51.050;3.716;2023-04-06T02:39:28;9.00;86.70
13960;DHT22;7052;51.050;3.716;2023-04-06T02:41:55;9.00;87.10
13960;DHT22;7052;51.050;3.716;2023-04-06T02:44:22;9.00;87.50
13960;DHT22;7052;51.050;3.716;2023-04-06T02:46:50;9.00;88.10
13960;DHT22;7052;51.050;3.716;2023-04-06T02:49:19;8.90;88.40
13960;DHT22;7052;51.050;3.716;2023-04-06T02:51:49;8.90;88.80
13960;DHT22;7052;51.050;3.716;2023-04-06T02:54:17;8.90;89.10
13960;DHT22;7052;51.050;3.716;2023-04-06T02:56:45;8.90;89.40
13960;DHT22;7052;51.050;3.716;2023-04-06T02:59:14;8.90;89.90
13960;DHT22;7052;51.050;3.716;2023-04-06T03:01:41;8.80;90.10
13960;DHT22;7052;51.050;3.716;2023-04-06T03:04:08;8.90;90.30
13960;DHT22;7052;51.050;3.716;2023-04-06T03:06:38;8.80;90.40
13960;DHT22;7052;51.050;3.716;2023-04-06T03:09:06;8.80;90.60
13960;DHT22;7052;51.050;3.716;2023-04-06T03:11:33;8.80;90.70
13960;DHT22;7052;51.050;3.716;2023-04-06T03:14:00;8.80;91.00
13960;DHT22;7052;51.050;3.716;2023-04-06T03:16:27;8.70;91.10
13960;DHT22;7052;51.050;3.716;2023-04-06T03:18:55;8.70;91.30
13960;DHT22;7052;51.050;3.716;2023-04-06T03:21:22;8.70;91.50
13960;DHT22;7052;51.050;3.716;2023-04-06T03:23:51;8.70;91.70
13960;DHT22;7052;51.050;3.716;2023-04-06T03:26:18;8.70;92.00
13960;DHT22;7052;51.050;3.716;2023-04-06T03:28:45;8.70;92.20
13960;DHT22;7052;51.050;3.716;2023-04-06T03:31:12;8.70;92.30
13960;DHT22;7052;51.050;3.716;2023-04-06T03:33:40;8.70;92.50
13960;DHT22;7052;51.050;3.716;2023-04-06T03:36:07;8.60;92.60
13960;DHT22;7052;51.050;3.716;2023-04-06T03:38:34;8.60;92.80
13960;DHT22;7052;51.050;3.716;2023-04-06T03:41:03;8.60;93.00
13960;DHT22;7052;51.050;3.716;2023-04-06T03:43:30;8.60;93.10
13960;DHT22;7052;51.050;3.716;2023-04-06T03:45:57;8.60;93.30
13960;DHT22;7052;51.050;3.716;2023-04-06T03:48:24;8.60;93.50
13960;DHT22;7052;51.050;3.716;2023-04-06T03:50:53;8.60;93.70
13960;DHT22;7052;51.050;3.716;2023-04-06T03:53:22;8.60;93.90
13960;DHT22;7052;51.050;3.716;2023-04-06T03:55:48;8.60;94.10
13960;DHT22;7052;51.050;3.716;2023-04-06T03:58:17;8.60;94.20
13960;DHT22;7052;51.050;3.716;2023-04-06T04:00:44;8.60;94.50
13960;DHT22;7052;51.050;3.716;2023-04-06T04:03:11;8.60;94.60
13960;DHT22;7052;51.050;3.716;2023-04-06T04:05:38;8.60;94.80
13960;DHT22;7052;51.050;3.716;2023-04-06T04:08:05;8.70;95.10
13960;DHT22;7052;51.050;3.716;2023-04-06T04:10:34;8.60;95.30
13960;DHT22;7052;51.050;3.716;2023-04-06T04:13:01;8.60;95.50
13960;DHT22;7052;51.050;3.716;2023-04-06T04:15:29;8.70;95.70
13960;DHT22;7052;51.050;3.716;2023-04-06T04:17:56;8.60;95.90
13960;DHT22;7052;51.050;3.716;2023-04-06T04:20:23;8.60;96.30
13960;DHT22;7052;51.050;3.716;2023-04-06T04:22:51;8.60;96.40
13960;DHT22;7052;51.050;3.716;2023-04-06T04:25:18;8.60;96.80
13960;DHT22;7052;51.050;3.716;2023-04-06T04:27:45;8.60;97.00
13960;DHT22;7052;51.050;3.716;2023-04-06T04:30:19;8.60;97.20
13960;DHT22;7052;51.050;3.716;2023-04-06T04:32:49;8.60;97.40
13960;DHT22;7052;51.050;3.716;2023-04-06T04:35:16;8.60;97.70
13960;DHT22;7052;51.050;3.716;2023-04-06T04:37:45;8.60;98.00
13960;DHT22;7052;51.050;3.716;2023-04-06T04:40:14;8.60;98.40
13960;DHT22;7052;51.050;3.716;2023-04-06T04:42:42;8.60;98.80
13960;DHT22;7052;51.050;3.716;2023-04-06T04:45:10;8.50;99.10
13960;DHT22;7052;51.050;3.716;2023-04-06T04:47:37;8.50;99.80
13960;DHT22;7052;51.050;3.716;2023-04-06T04:50:08;8.50;99.90
13960;DHT22;7052;51.050;3.716;2023-04-06T04:52:35;8.50;99.90
13960;DHT22;7052;51.050;3.716;2023-04-06T04:55:02;8.50;99.90
13960;DHT22;7052;51.050;3.716;2023-04-06T04:57:30;8.50;99.90
13960;DHT22;7052;51.050;3.716;2023-04-06T04:59:57;8.50;99.90
13960;DHT22;7052;51.050;3.716;2023-04-06T05:02:25;8.50;99.90
13960;DHT22;7052;51.050;3.716;2023-04-06T05:04:53;8.50;99.90
13960;DHT22;7052;51.050;3.716;2023-04-06T05:07:25;8.50;99.90
13960;DHT22;7052;51.050;3.716;2023-04-06T05:09:53;8.60;99.90
13960;DHT22;7052;51.050;3.716;2023-04-06T05:12:20;8.60;99.90
13960;DHT22;7052;51.050;3.716;2023-04-06T05:14:48;8.60;99.90
13960;DHT22;7052;51.050;3.716;2023-04-06T05:17:17;8.60;99.90
13960;DHT22;7052;51.050;3.716;2023-04-06T05:19:45;8.50;99.90
13960;DHT22;7052;51.050;3.716;2023-04-06T05:22:15;8.50;99.90
13960;DHT22;7052;51.050;3.716;2023-04-06T05:24:46;8.50;99.90
13960;DHT22;7052;51.050;3.716;2023-04-06T05:27:14;8.50;99.90
13960;DHT22;7052;51.050;3.716;2023-04-06T05:29:45;8.50;99.90
13960;DHT22;7052;51.050;3.716;2023-04-06T05:32:13;8.50;99.90
13960;DHT22;7052;51.050;3.716;2023-04-06T05:34:41;8.50;99.90
13960;DHT22;7052;51.050;3.716;2023-04-06T05:37:09;8.40;99.90
13960;DHT22;7052;51.050;3.716;2023-04-06T05:39:37;8.40;99.90
13960;DHT22;7052;51.050;3.716;2023-04-06T05:42:06;8.40;99.90
13960;DHT22;7052;51.050;3.716;2023-04-06T05:44:33;8.40;99.90
13960;DHT22;7052;51.050;3.716;2023-04-06T05:47:01;8.40;99.90
13960;DHT22;7052;51.050;3.716;2023-04-06T05:49:29;8.30;99.90
13960;DHT22;7052;51.050;3.716;2023-04-06T05:51:56;8.30;99.90
13960;DHT22;7052;51.050;3.716;2023-04-06T05:54:26;8.30;99.90
13960;DHT22;7052;51.050;3.716;2023-04-06T05:56:54;8.30;99.90
13960;DHT22;7052;51.050;3.716;2023-04-06T05:59:24;8.30;99.90
13960;DHT22;7052;51.050;3.716;2023-04-06T06:01:51;8.20;99.90
13960;DHT22;7052;51.050;3.716;2023-04-06T06:04:19;8.20;99.90
13960;DHT22;7052;51.050;3.716;2023-04-06T06:06:47;8.20;99.90
13960;DHT22;7052;51.050;3.716;2023-04-06T06:09:13;8.20;99.90
13960;DHT22;7052;51.050;3.716;2023-04-06T06:11:41;8.10;99.90
13960;DHT22;7052;51.050;3.716;2023-04-06T06:14:08;8.10;99.90
13960;DHT22;7052;51.050;3.716;2023-04-06T06:16:36;8.10;99.90
13960;DHT22;7052;51.050;3.716;2023-04-06T06:19:06;8.10;99.90
13960;DHT22;7052;51.050;3.716;2023-04-06T06:21:33;8.10;99.90
13960;DHT22;7052;51.050;3.716;2023-04-06T06:24:00;8.10;99.90
13960;DHT22;7052;51.050;3.716;2023-04-06T06:26:27;8.10;99.90
13960;DHT22;7052;51.050;3.716;2023-04-06T06:28:56;8.10;99.90
13960;DHT22;7052;51.050;3.716;2023-04-06T06:31:24;8.10;99.90
13960;DHT22;7052;51.050;3.716;2023-04-06T06:33:56;8.10;99.90
13960;DHT22;7052;51.050;3.716;2023-04-06T06:36:23;8.10;99.90
13960;DHT22;7052;51.050;3.716;2023-04-06T06:38:50;8.10;99.90
13960;DHT22;7052;51.050;3.716;2023-04-06T06:41:18;8.10;99.90
13960;DHT22;7052;51.050;3.716;2023-04-06T06:43:46;8.10;99.90
13960;DHT22;7052;51.050;3.716;2023-04-06T06:46:14;8.10;99.90
13960;DHT22;7052;51.050;3.716;2023-04-06T06:48:44;8.10;99.90
13960;DHT22;7052;51.050;3.716;2023-04-06T06:51:13;8.20;99.90
13960;DHT22;7052;51.050;3.716;2023-04-06T06:53:41;8.20;99.90
13960;DHT22;7052;51.050;3.716;2023-04-06T06:56:08;8.30;99.90
13960;DHT22;7052;51.050;3.716;2023-04-06T06:58:35;8.30;99.90
13960;DHT22;7052;51.050;3.716;2023-04-06T07:01:03;8.30;99.90
13960;DHT22;7052;51.050;3.716;2023-04-06T07:03:31;8.40;99.90
13960;DHT22;7052;51.050;3.716;2023-04-06T07:05:58;8.40;99.90
13960;DHT22;7052;51.050;3.716;2023-04-06T07:08:27;8.50;99.90
13960;DHT22;7052;51.050;3.716;2023-04-06T07:10:55;8.50;99.90
13960;DHT22;7052;51.050;3.716;2023-04-06T07:13:24;8.60;99.90
13960;DHT22;7052;51.050;3.716;2023-04-06T07:15:53;8.60;99.90
13960;DHT22;7052;51.050;3.716;2023-04-06T07:18:20;8.60;99.90
13960;DHT22;7052;51.050;3.716;2023-04-06T07:20:48;8.60;99.90
13960;DHT22;7052;51.050;3.716;2023-04-06T07:23:16;8.70;99.90
13960;DHT22;7052;51.050;3.716;2023-04-06T07:25:44;8.70;99.90
13960;DHT22;7052;51.050;3.716;2023-04-06T07:28:12;8.70;99.90
13960;DHT22;7052;51.050;3.716;2023-04-06T07:30:38;8.70;99.90
13960;DHT22;7052;51.050;3.716;2023-04-06T07:33:05;8.80;99.90
13960;DHT22;7052;51.050;3.716;2023-04-06T07:35:32;8.80;99.90
13960;DHT22;7052;51.050;3.716;2023-04-06T07:38:00;8.90;99.90
13960;DHT22;7052;51.050;3.716;2023-04-06T07:40:30;8.80;99.90
13960;DHT22;7052;51.050;3.716;2023-04-06T07:42:59;8.80;99.90
13960;DHT22;7052;51.050;3.716;2023-04-06T07:45:28;8.70;99.90
13960;DHT22;7052;51.050;3.716;2023-04-06T07:47:59;8.60;99.90
13960;DHT22;7052;51.050;3.716;2023-04-06T07:50:26;8.60;99.90
13960;DHT22;7052;51.050;3.716;2023-04-06T07:52:54;8.60;99.90
13960;DHT22;7052;51.050;3.716;2023-04-06T07:55:21;8.60;99.90
13960;DHT22;7052;51.050;3.716;2023-04-06T07:57:49;8.60;99.90
13960;DHT22;7052;51.050;3.716;2023-04-06T08:00:19;8.60;99.90
13960;DHT22;7052;51.050;3.716;2023-04-06T08:02:46;8.70;99.90
13960;DHT22;7052;51.050;3.716;2023-04-06T08:05:15;8.70;99.90
13960;DHT22;7052;51.050;3.716;2023-04-06T08:07:43;8.70;99.90
13960;DHT22;7052;51.050;3.716;2023-04-06T08:10:10;8.70;99.90
13960;DHT22;7052;51.050;3.716;2023-04-06T08:12:37;8.80;99.90
13960;DHT22;7052;51.050;3.716;2023-04-06T08:15:05;8.80;99.90
13960;DHT22;7052;51.050;3.716;2023-04-06T08:17:34;8.80;99.90
13960;DHT22;7052;51.050;3.716;2023-04-06T08:20:01;8.90;99.90
13960;DHT22;7052;51.050;3.716;2023-04-06T08:22:30;8.90;99.90
13960;DHT22;7052;51.050;3.716;2023-04-06T08:24:57;8.90;99.90
13960;DHT22;7052;51.050;3.716;2023-04-06T08:27:24;9.00;99.90
13960;DHT22;7052;51.050;3.716;2023-04-06T08:29:51;9.00;99.90
13960;DHT22;7052;51.050;3.716;2023-04-06T08:32:18;9.00;99.90
13960;DHT22;7052;51.050;3.716;2023-04-06T08:34:53;9.00;99.90
13960;DHT22;7052;51.050;3.716;2023-04-06T08:37:20;9.00;99.90
13960;DHT22;7052;51.050;3.716;2023-04-06T08:39:48;9.00;99.90
13960;DHT22;7052;51.050;3.716;2023-04-06T08:42:20;8.90;99.90
13960;DHT22;7052;51.050;3.716;2023-04-06T08:44:49;8.90;99.90
13960;DHT22;7052;51.050;3.716;2023-04-06T08:47:19;8.80;99.90
13960;DHT22;7052;51.050;3.716;2023-04-06T08:49:48;8.80;99.90
13960;DHT22;7052;51.050;3.716;2023-04-06T08:52:18;8.80;99.90
13960;DHT22;7052;51.050;3.716;2023-04-06T08:54:46;8.80;99.90
13960;DHT22;7052;51.050;3.716;2023-04-06T08:57:19;8.90;99.90
13960;DHT22;7052;51.050;3.716;2023-04-06T08:59:46;8.90;99.90
13960;DHT22;7052;51.050;3.716;2023-04-06T09:02:18;8.90;99.90
13960;DHT22;7052;51.050;3.716;2023-04-06T09:04:53;8.90;99.90
13960;DHT22;7052;51.050;3.716;2023-04-06T09:07:21;8.90;99.90
13960;DHT22;7052;51.050;3.716;2023-04-06T09:09:49;9.00;99.90
13960;DHT22;7052;51.050;3.716;2023-04-06T09:12:25;9.00;99.90
13960;DHT22;7052;51.050;3.716;2023-04-06T09:14:54;9.00;99.90
13960;DHT22;7052;51.050;3.716;2023-04-06T09:17:22;9.10;99.90
13960;DHT22;7052;51.050;3.716;2023-04-06T09:19:52;9.20;99.90
13960;DHT22;7052;51.050;3.716;2023-04-06T09:22:20;9.20;99.90
13960;DHT22;7052;51.050;3.716;2023-04-06T09:24:53;9.20;99.90
13960;DHT22;7052;51.050;3.716;2023-04-06T09:27:30;9.20;99.90
13960;DHT22;7052;51.050;3.716;2023-04-06T09:30:04;9.20;99.90
13960;DHT22;7052;51.050;3.716;2023-04-06T09:32:32;9.20;99.90
13960;DHT22;7052;51.050;3.716;2023-04-06T09:35:09;9.20;99.90
13960;DHT22;7052;51.050;3.716;2023-04-06T09:37:36;9.10;99.90
13960;DHT22;7052;51.050;3.716;2023-04-06T09:40:04;9.20;99.90
13960;DHT22;7052;51.050;3.716;2023-04-06T09:42:31;9.10;99.90
13960;DHT22;7052;51.050;3.716;2023-04-06T09:44:59;9.20;99.90
13960;DHT22;7052;51.050;3.716;2023-04-06T09:47:26;9.20;99.90
13960;DHT22;7052;51.050;3.716;2023-04-06T09:49:57;9.20;99.90
13960;DHT22;7052;51.050;3.716;2023-04-06T09:52:27;9.20;99.90
13960;DHT22;7052;51.050;3.716;2023-04-06T09:55:02;9.20;99.90
13960;DHT22;7052;51.050;3.716;2023-04-06T09:57:32;9.20;99.90
13960;DHT22;7052;51.050;3.716;2023-04-06T10:00:07;9.20;99.90
13960;DHT22;7052;51.050;3.716;2023-04-06T10:02:44;9.30;99.90
13960;DHT22;7052;51.050;3.716;2023-04-06T10:05:19;9.20;99.90
13960;DHT22;7052;51.050;3.716;2023-04-06T10:07:57;9.20;99.90
13960;DHT22;7052;51.050;3.716;2023-04-06T10:10:26;9.20;99.90
13960;DHT22;7052;51.050;3.716;2023-04-06T10:12:54;9.20;99.90
13960;DHT22;7052;51.050;3.716;2023-04-06T10:15:24;9.30;99.90
13960;DHT22;7052;51.050;3.716;2023-04-06T10:17:52;9.30;99.90
13960;DHT22;7052;51.050;3.716;2023-04-06T10:20:23;9.30;99.90
13960;DHT22;7052;51.050;3.716;2023-04-06T10:22:59;9.30;99.90
13960;DHT22;7052;51.050;3.716;2023-04-06T10:25:27;9.30;99.90
13960;DHT22;7052;51.050;3.716;2023-04-06T10:28:02;9.30;99.90
13960;DHT22;7052;51.050;3.716;2023-04-06T10:30:33;9.30;99.90
13960;DHT22;7052;51.050;3.716;2023-04-06T10:33:12;9.40;99.90
13960;DHT22;7052;51.050;3.716;2023-04-06T10:35:43;9.40;99.90
13960;DHT22;7052;51.050;3.716;2023-04-06T10:38:13;9.40;99.90
13960;DHT22;7052;51.050;3.716;2023-04-06T10:40:41;9.20;99.90
13960;DHT22;7052;51.050;3.716;2023-04-06T10:43:10;9.30;99.90
13960;DHT22;7052;51.050;3.716;2023-04-06T10:45:38;9.20;99.90
13960;DHT22;7052;51.050;3.716;2023-04-06T10:48:38;9.20;99.90
13960;DHT22;7052;51.050;3.716;2023-04-06T10:51:11;9.30;99.90
13960;DHT22;7052;51.050;3.716;2023-04-06T10:53:44;9.40;99.90
13960;DHT22;7052;51.050;3.716;2023-04-06T10:56:15;9.40;99.90
13960;DHT22;7052;51.050;3.716;2023-04-06T10:58:46;9.40;99.90
13960;DHT22;7052;51.050;3.716;2023-04-06T11:01:16;9.40;99.90
13960;DHT22;7052;51.050;3.716;2023-04-06T11:03:44;9.50;99.90
13960;DHT22;7052;51.050;3.716;2023-04-06T11:06:18;9.60;99.90
13960;DHT22;7052;51.050;3.716;2023-04-06T11:08:48;9.70;99.90
13960;DHT22;7052;51.050;3.716;2023-04-06T11:11:16;9.80;99.90
13960;DHT22;7052;51.050;3.716;2023-04-06T11:13:51;9.80;99.90
13960;DHT22;7052;51.050;3.716;2023-04-06T11:16:19;9.70;99.90
13960;DHT22;7052;51.050;3.716;2023-04-06T11:18:50;9.80;99.90
13960;DHT22;7052;51.050;3.716;2023-04-06T11:21:18;9.70;99.90
13960;DHT22;7052;51.050;3.716;2023-04-06T11:23:48;9.80;99.90
13960;DHT22;7052;51.050;3.716;2023-04-06T11:26:15;9.80;99.90
13960;DHT22;7052;51.050;3.716;2023-04-06T11:28:42;9.80;99.90
13960;DHT22;7052;51.050;3.716;2023-04-06T11:31:11;9.80;99.90
13960;DHT22;7052;51.050;3.716;2023-04-06T11:33:39;9.90;99.90
13960;DHT22;7052;51.050;3.716;2023-04-06T11:36:08;9.90;99.90
13960;DHT22;7052;51.050;3.716;2023-04-06T11:38:39;9.90;99.90
13960;DHT22;7052;51.050;3.716;2023-04-06T11:41:08;10.00;99.90
13960;DHT22;7052;51.050;3.716;2023-04-06T11:43:35;9.90;99.90
13960;DHT22;7052;51.050;3.716;2023-04-06T11:46:03;10.00;99.90
13960;DHT22;7052;51.050;3.716;2023-04-06T11:48:44;10.00;99.90
13960;DHT22;7052;51.050;3.716;2023-04-06T11:51:12;10.00;99.90
13960;DHT22;7052;51.050;3.716;2023-04-06T11:53:44;10.10;99.90
13960;DHT22;7052;51.050;3.716;2023-04-06T11:56:25;10.00;99.90
13960;DHT22;7052;51.050;3.716;2023-04-06T11:58:53;10.00;99.90
13960;DHT22;7052;51.050;3.716;2023-04-06T12:01:23;10.00;99.90
13960;DHT22;7052;51.050;3.716;2023-04-06T12:03:55;10.00;99.90
13960;DHT22;7052;51.050;3.716;2023-04-06T12:06:23;10.00;99.90
13960;DHT22;7052;51.050;3.716;2023-04-06T12:08:52;10.00;99.90
13960;DHT22;7052;51.050;3.716;2023-04-06T12:11:19;10.00;99.90
13960;DHT22;7052;51.050;3.716;2023-04-06T12:13:51;10.00;99.90
13960;DHT22;7052;51.050;3.716;2023-04-06T12:16:18;10.00;99.90
13960;DHT22;7052;51.050;3.716;2023-04-06T12:18:46;10.00;99.90
13960;DHT22;7052;51.050;3.716;2023-04-06T12:21:13;10.00;99.90
13960;DHT22;7052;51.050;3.716;2023-04-06T12:23:41;10.00;99.90
13960;DHT22;7052;51.050;3.716;2023-04-06T12:26:08;10.00;99.90
13960;DHT22;7052;51.050;3.716;2023-04-06T12:28:37;9.90;99.90
13960;DHT22;7052;51.050;3.716;2023-04-06T12:31:06;9.90;99.90
13960;DHT22;7052;51.050;3.716;2023-04-06T12:33:33;9.90;99.90
13960;DHT22;7052;51.050;3.716;2023-04-06T12:36:01;9.90;99.90
13960;DHT22;7052;51.050;3.716;2023-04-06T12:38:29;9.90;99.90
13960;DHT22;7052;51.050;3.716;2023-04-06T12:40:56;9.80;99.90
13960;DHT22;7052;51.050;3.716;2023-04-06T12:43:28;9.90;99.90
13960;DHT22;7052;51.050;3.716;2023-04-06T12:45:55;10.00;99.90
13960;DHT22;7052;51.050;3.716;2023-04-06T12:48:24;10.00;99.90
13960;DHT22;7052;51.050;3.716;2023-04-06T12:50:54;10.10;99.90
13960;DHT22;7052;51.050;3.716;2023-04-06T12:53:24;10.10;99.90
13960;DHT22;7052;51.050;3.716;2023-04-06T12:55:54;10.00;99.90
13960;DHT22;7052;51.050;3.716;2023-04-06T12:58:23;10.10;99.90
13960;DHT22;7052;51.050;3.716;2023-04-06T13:00:54;10.10;99.90
13960;DHT22;7052;51.050;3.716;2023-04-06T13:03:21;10.10;99.90
13960;DHT22;7052;51.050;3.716;2023-04-06T13:05:51;10.10;99.90
13960;DHT22;7052;51.050;3.716;2023-04-06T13:08:19;10.10;99.90
13960;DHT22;7052;51.050;3.716;2023-04-06T13:10:49;10.20;99.90
13960;DHT22;7052;51.050;3.716;2023-04-06T13:13:23;10.10;99.90
13960;DHT22;7052;51.050;3.716;2023-04-06T13:15:52;10.00;99.90
13960;DHT22;7052;51.050;3.716;2023-04-06T13:18:23;10.10;99.90
13960;DHT22;7052;51.050;3.716;2023-04-06T13:20:55;10.00;99.90
13960;DHT22;7052;51.050;3.716;2023-04-06T13:23:22;10.10;99.90
13960;DHT22;7052;51.050;3.716;2023-04-06T13:25:57;10.10;99.90
13960;DHT22;7052;51.050;3.716;2023-04-06T13:28:26;10.20;99.90
13960;DHT22;7052;51.050;3.716;2023-04-06T13:30:57;10.30;99.90
13960;DHT22;7052;51.050;3.716;2023-04-06T13:33:24;10.30;99.90
13960;DHT22;7052;51.050;3.716;2023-04-06T13:35:53;10.30;99.90
13960;DHT22;7052;51.050;3.716;2023-04-06T13:38:20;10.30;99.90
13960;DHT22;7052;51.050;3.716;2023-04-06T13:40:52;10.30;99.90
13960;DHT22;7052;51.050;3.716;2023-04-06T13:43:19;10.30;99.90
13960;DHT22;7052;51.050;3.716;2023-04-06T13:45:52;10.30;99.90
13960;DHT22;7052;51.050;3.716;2023-04-06T13:48:20;10.30;99.90
13960;DHT22;7052;51.050;3.716;2023-04-06T13:50:53;10.30;99.90
13960;DHT22;7052;51.050;3.716;2023-04-06T13:53:22;10.30;99.90
13960;DHT22;7052;51.050;3.716;2023-04-06T13:55:53;10.30;99.90
13960;DHT22;7052;51.050;3.716;2023-04-06T13:58:21;10.40;99.90
13960;DHT22;7052;51.050;3.716;2023-04-06T14:00:50;10.40;99.90
13960;DHT22;7052;51.050;3.716;2023-04-06T14:03:20;10.40;99.90
13960;DHT22;7052;51.050;3.716;2023-04-06T14:05:48;10.40;99.90
13960;DHT22;7052;51.050;3.716;2023-04-06T14:08:16;10.40;99.90
13960;DHT22;7052;51.050;3.716;2023-04-06T14:10:45;10.50;99.90
13960;DHT22;7052;51.050;3.716;2023-04-06T14:13:12;10.50;99.90
13960;DHT22;7052;51.050;3.716;2023-04-06T14:15:39;10.50;99.90
13960;DHT22;7052;51.050;3.716;2023-04-06T14:18:08;10.50;99.90
13960;DHT22;7052;51.050;3.716;2023-04-06T14:20:35;10.50;99.90
13960;DHT22;7052;51.050;3.716;2023-04-06T14:23:03;10.50;99.90
13960;DHT22;7052;51.050;3.716;2023-04-06T14:25:32;10.50;99.90
13960;DHT22;7052;51.050;3.716;2023-04-06T14:28:01;10.50;99.90
13960;DHT22;7052;51.050;3.716;2023-04-06T14:30:31;10.60;99.90
13960;DHT22;7052;51.050;3.716;2023-04-06T14:32:58;10.60;99.90
13960;DHT22;7052;51.050;3.716;2023-04-06T14:35:27;10.70;99.90
13960;DHT22;7052;51.050;3.716;2023-04-06T14:37:58;10.80;99.90
13960;DHT22;7052;51.050;3.716;2023-04-06T14:40:27;10.90;99.90
13960;DHT22;7052;51.050;3.716;2023-04-06T14:42:57;11.00;99.90
13960;DHT22;7052;51.050;3.716;2023-04-06T14:45:24;11.00;99.90
13960;DHT22;7052;51.050;3.716;2023-04-06T14:47:52;11.10;99.90
13960;DHT22;7052;51.050;3.716;2023-04-06T14:50:19;11.10;99.90
13960;DHT22;7052;51.050;3.716;2023-04-06T14:52:46;11.20;99.90
13960;DHT22;7052;51.050;3.716;2023-04-06T14:55:14;11.20;99.90
13960;DHT22;7052;51.050;3.716;2023-04-06T14:57:41;11.20;99.90
13960;DHT22;7052;51.050;3.716;2023-04-06T15:00:10;11.20;99.90
13960;DHT22;7052;51.050;3.716;2023-04-06T15:02:39;11.20;99.90
13960;DHT22;7052;51.050;3.716;2023-04-06T15:05:11;11.20;99.90
13960;DHT22;7052;51.050;3.716;2023-04-06T15:07:37;11.30;99.90
13960;DHT22;7052;51.050;3.716;2023-04-06T15:10:07;11.30;99.90
13960;DHT22;7052;51.050;3.716;2023-04-06T15:12:35;11.30;99.90
13960;DHT22;7052;51.050;3.716;2023-04-06T15:15:03;11.30;99.90
13960;DHT22;7052;51.050;3.716;2023-04-06T15:17:32;11.40;99.90
13960;DHT22;7052;51.050;3.716;2023-04-06T15:19:59;11.40;99.90
13960;DHT22;7052;51.050;3.716;2023-04-06T15:22:30;11.40;99.90
13960;DHT22;7052;51.050;3.716;2023-04-06T15:24:58;11.50;99.90
13960;DHT22;7052;51.050;3.716;2023-04-06T15:27:27;11.50;99.90
13960;DHT22;7052;51.050;3.716;2023-04-06T15:29:56;11.60;99.90
13960;DHT22;7052;51.050;3.716;2023-04-06T15:32:23;11.70;99.90
13960;DHT22;7052;51.050;3.716;2023-04-06T15:34:58;11.70;99.90
13960;DHT22;7052;51.050;3.716;2023-04-06T15:37:25;11.70;99.90
13960;DHT22;7052;51.050;3.716;2023-04-06T15:39:52;11.70;99.90
13960;DHT22;7052;51.050;3.716;2023-04-06T15:42:21;11.70;99.90
13960;DHT22;7052;51.050;3.716;2023-04-06T15:44:49;11.70;99.90
13960;DHT22;7052;51.050;3.716;2023-04-06T15:47:20;11.60;99.90
13960;DHT22;7052;51.050;3.716;2023-04-06T15:49:47;11.60;99.90
13960;DHT22;7052;51.050;3.716;2023-04-06T15:52:15;11.50;99.90
13960;DHT22;7052;51.050;3.716;2023-04-06T15:54:42;11.50;99.90
13960;DHT22;7052;51.050;3.716;2023-04-06T15:57:10;11.50;99.90
13960;DHT22;7052;51.050;3.716;2023-04-06T15:59:37;11.50;99.90
13960;DHT22;7052;51.050;3.716;2023-04-06T16:02:04;11.50;99.90
13960;DHT22;7052;51.050;3.716;2023-04-06T16:04:31;11.60;99.90
13960;DHT22;7052;51.050;3.716;2023-04-06T16:07:00;11.60;99.90